createdAt,value
2018-11-23T00:02:17.787Z,1.60
2018-11-23T00:04:46.121Z,1.60
2018-11-23T00:07:14.478Z,1.60
2018-11-23T00:09:42.775Z,1.60
2018-11-23T00:12:11.084Z,1.60
2018-11-23T00:14:39.422Z,1.70
2018-11-23T00:17:07.754Z,1.60
2018-11-23T00:19:36.128Z,1.60
2018-11-23T00:22:04.556Z,1.60
2018-11-23T00:24:32.859Z,1.60
2018-11-23T00:27:01.366Z,1.60
2018-11-23T00:29:30.014Z,1.60
2018-11-23T00:31:58.324Z,1.60
2018-11-23T00:34:26.709Z,1.60
2018-11-23T00:36:55.029Z,1.60
2018-11-23T00:39:23.394Z,1.50
2018-11-23T00:41:52.204Z,1.40
2018-11-23T00:44:20.582Z,1.40
2018-11-23T00:46:48.932Z,1.30
2018-11-23T00:49:17.318Z,1.30
2018-11-23T00:51:45.703Z,1.40
2018-11-23T00:54:14.215Z,1.30
2018-11-23T00:56:42.571Z,1.20
2018-11-23T00:59:10.956Z,1.20
2018-11-23T01:01:44.705Z,1.20
2018-11-23T01:04:13.051Z,1.20
2018-11-23T01:06:41.495Z,1.20
2018-11-23T01:09:12.899Z,1.10
2018-11-23T01:11:41.947Z,1.10
2018-11-23T01:14:10.325Z,1.10
2018-11-23T01:16:38.698Z,1.00
2018-11-23T01:19:07.421Z,1.00
2018-11-23T01:21:35.908Z,1.00
2018-11-23T01:24:04.270Z,1.00
2018-11-23T01:26:32.593Z,1.00
2018-11-23T01:29:00.923Z,1.10
2018-11-23T01:31:29.237Z,1.00
2018-11-23T01:33:57.560Z,0.90
2018-11-23T01:36:25.937Z,0.90
2018-11-23T01:38:54.285Z,1.00
2018-11-23T01:41:22.697Z,1.00
2018-11-23T01:43:51.150Z,1.00
2018-11-23T01:46:19.535Z,1.00
2018-11-23T01:48:47.891Z,1.00
2018-11-23T01:51:16.253Z,1.00
2018-11-23T01:53:44.628Z,1.00
2018-11-23T01:56:13.008Z,0.90
2018-11-23T01:58:41.333Z,0.90
2018-11-23T02:01:09.680Z,0.80
2018-11-23T02:03:38.012Z,0.80
2018-11-23T02:06:06.381Z,0.80
2018-11-23T02:08:34.718Z,0.70
2018-11-23T02:11:03.160Z,0.80
2018-11-23T02:13:31.471Z,0.80
2018-11-23T02:15:59.805Z,0.90
2018-11-23T02:18:28.279Z,0.90
2018-11-23T02:20:56.593Z,0.90
2018-11-23T02:23:24.966Z,0.90
2018-11-23T02:25:53.593Z,0.80
2018-11-23T02:28:21.970Z,0.80
2018-11-23T02:30:51.837Z,0.80
2018-11-23T02:33:20.295Z,0.80
2018-11-23T02:35:48.623Z,0.80
2018-11-23T02:38:16.937Z,0.70
2018-11-23T02:40:45.315Z,0.70
2018-11-23T02:43:13.668Z,0.70
2018-11-23T02:45:41.982Z,0.60
2018-11-23T02:48:10.311Z,0.60
2018-11-23T02:50:38.687Z,0.60
2018-11-23T02:53:07.014Z,0.60
2018-11-23T02:55:35.418Z,0.60
2018-11-23T02:58:03.763Z,0.60
2018-11-23T03:00:32.075Z,0.50
2018-11-23T03:03:00.381Z,0.40
2018-11-23T03:05:28.685Z,0.40
2018-11-23T03:07:57.020Z,0.40
2018-11-23T03:10:25.349Z,0.40
2018-11-23T03:12:53.687Z,0.40
2018-11-23T03:15:22.032Z,0.50
2018-11-23T03:17:50.837Z,0.40
2018-11-23T03:20:20.344Z,0.40
2018-11-23T03:22:48.732Z,0.40
2018-11-23T03:25:17.142Z,0.50
2018-11-23T03:27:45.496Z,0.40
2018-11-23T03:30:18.039Z,0.50
2018-11-23T03:32:47.345Z,0.30
2018-11-23T03:35:15.908Z,0.40
2018-11-23T03:37:44.982Z,0.40
2018-11-23T03:40:13.080Z,0.40
2018-11-23T03:42:41.571Z,0.40
2018-11-23T03:45:11.827Z,0.40
2018-11-23T03:47:40.601Z,0.50
2018-11-23T03:50:10.060Z,0.40
2018-11-23T03:52:38.563Z,0.40
2018-11-23T03:55:07.049Z,0.40
2018-11-23T03:57:35.648Z,0.40
2018-11-23T04:00:06.141Z,0.40
2018-11-23T04:02:34.593Z,0.30
2018-11-23T04:05:02.943Z,0.40
2018-11-23T04:07:31.514Z,0.40
2018-11-23T04:09:59.897Z,0.30
2018-11-23T04:12:28.193Z,0.30
2018-11-23T04:14:56.582Z,0.30
2018-11-23T04:17:25.027Z,0.30
2018-11-23T04:19:53.353Z,0.30
2018-11-23T04:22:21.722Z,0.30
2018-11-23T04:24:50.066Z,0.20
2018-11-23T04:27:18.442Z,0.30
2018-11-23T04:29:46.767Z,0.30
2018-11-23T04:32:15.195Z,0.20
2018-11-23T04:34:43.484Z,0.20
2018-11-23T04:37:12.030Z,0.20
2018-11-23T04:39:40.365Z,0.30
2018-11-23T04:42:08.762Z,0.30
2018-11-23T04:44:37.101Z,0.30
2018-11-23T04:47:05.630Z,0.30
2018-11-23T04:49:33.951Z,0.30
2018-11-23T04:52:02.352Z,0.30
2018-11-23T04:54:30.695Z,0.30
2018-11-23T04:56:59.088Z,0.30
2018-11-23T04:59:27.449Z,0.30
2018-11-23T05:01:55.868Z,0.30
2018-11-23T05:04:24.198Z,0.30
2018-11-23T05:06:52.541Z,0.30
2018-11-23T05:09:20.903Z,0.30
2018-11-23T05:11:50.308Z,0.30
2018-11-23T05:14:17.686Z,0.30
2018-11-23T05:16:46.008Z,0.30
2018-11-23T05:19:14.292Z,0.30
2018-11-23T05:21:42.677Z,0.40
2018-11-23T05:24:11.090Z,0.30
2018-11-23T05:26:39.454Z,0.30
2018-11-23T05:29:07.820Z,0.30
2018-11-23T05:31:36.262Z,0.30
2018-11-23T05:34:04.862Z,0.20
2018-11-23T05:36:33.192Z,0.10
2018-11-23T05:39:03.252Z,0.20
2018-11-23T05:41:31.625Z,0.20
2018-11-23T05:43:59.996Z,0.20
2018-11-23T05:46:28.377Z,0.20
2018-11-23T05:48:57.777Z,0.10
2018-11-23T05:51:26.140Z,0.20
2018-11-23T05:53:54.532Z,0.20
2018-11-23T05:56:22.901Z,0.00
2018-11-23T05:58:51.430Z,0.00
2018-11-23T06:01:22.777Z,0.00
2018-11-23T06:03:51.984Z,-0.20
2018-11-23T06:06:20.268Z,-0.20
2018-11-23T06:08:48.589Z,-0.20
2018-11-23T06:11:16.912Z,-0.20
2018-11-23T06:13:45.271Z,-0.10
2018-11-23T06:16:13.594Z,-0.10
2018-11-23T06:18:41.962Z,-0.10
2018-11-23T06:21:10.445Z,0.00
2018-11-23T06:23:38.800Z,0.00
2018-11-23T06:26:11.498Z,0.00
2018-11-23T06:28:39.837Z,0.10
2018-11-23T06:31:08.283Z,0.10
2018-11-23T06:33:38.572Z,0.20
2018-11-23T06:36:07.086Z,0.10
2018-11-23T06:38:35.569Z,0.10
2018-11-23T06:41:10.055Z,0.10
2018-11-23T06:43:32.308Z,0.10
2018-11-23T06:46:01.667Z,0.10
2018-11-23T06:48:30.090Z,0.10
2018-11-23T06:50:58.445Z,0.20
2018-11-23T06:53:26.943Z,0.10
2018-11-23T06:55:55.730Z,0.10
2018-11-23T06:58:24.136Z,0.10
2018-11-23T07:00:52.574Z,0.10
2018-11-23T07:03:20.943Z,0.20
2018-11-23T07:05:49.264Z,0.20
2018-11-23T07:08:17.629Z,0.20
2018-11-23T07:10:46.081Z,0.20
2018-11-23T07:13:15.368Z,0.10
2018-11-23T07:15:43.732Z,0.00
2018-11-23T07:18:12.126Z,0.00
2018-11-23T07:20:40.449Z,0.10
2018-11-23T07:23:08.826Z,0.10
2018-11-23T07:25:37.181Z,0.10
2018-11-23T07:28:05.557Z,0.20
2018-11-23T07:30:33.929Z,0.20
2018-11-23T07:33:02.311Z,0.30
2018-11-23T07:35:30.854Z,0.20
2018-11-23T07:38:00.317Z,0.30
2018-11-23T07:40:41.656Z,0.30
2018-11-23T07:43:10.161Z,0.30
2018-11-23T07:45:38.528Z,0.30
2018-11-23T07:48:07.110Z,0.30
2018-11-23T07:50:35.413Z,0.30
2018-11-23T07:53:03.804Z,0.10
2018-11-23T07:55:32.253Z,0.10
2018-11-23T07:58:00.653Z,0.00
2018-11-23T08:00:29.031Z,0.00
2018-11-23T08:02:57.392Z,0.00
2018-11-23T08:05:25.743Z,0.10
2018-11-23T08:07:54.178Z,0.10
2018-11-23T08:10:21.867Z,0.20
2018-11-23T08:12:50.924Z,0.30
2018-11-23T08:15:20.992Z,0.30
2018-11-23T08:17:49.466Z,0.30
2018-11-23T08:20:19.413Z,0.40
2018-11-23T08:22:47.856Z,0.50
2018-11-23T08:25:17.517Z,0.50
2018-11-23T08:27:47.010Z,0.60
2018-11-23T08:30:18.953Z,0.70
2018-11-23T08:32:47.338Z,0.80
2018-11-23T08:35:15.897Z,0.80
2018-11-23T08:37:44.431Z,0.80
2018-11-23T08:40:16.497Z,0.90
2018-11-23T08:42:45.813Z,0.90
2018-11-23T08:45:15.930Z,1.00
2018-11-23T08:47:44.444Z,1.10
2018-11-23T08:50:18.590Z,1.20
2018-11-23T08:52:46.935Z,1.30
2018-11-23T08:55:16.365Z,1.40
2018-11-23T08:57:44.772Z,1.50
2018-11-23T09:00:16.380Z,1.60
2018-11-23T09:02:45.572Z,1.70
2018-11-23T09:05:14.090Z,1.80
2018-11-23T09:07:43.195Z,1.90
2018-11-23T09:10:14.728Z,2.00
2018-11-23T09:12:43.810Z,2.10
2018-11-23T09:15:14.370Z,2.20
2018-11-23T09:17:45.017Z,2.30
2018-11-23T09:20:14.012Z,2.40
2018-11-23T09:22:43.390Z,2.60
2018-11-23T09:25:20.700Z,3.20
2018-11-23T09:27:49.132Z,3.60
2018-11-23T09:30:20.476Z,3.70
2018-11-23T09:32:50.798Z,3.80
2018-11-23T09:35:19.378Z,3.80
2018-11-23T09:37:51.831Z,3.90
2018-11-23T09:40:21.812Z,3.90
2018-11-23T09:42:50.277Z,4.00
2018-11-23T09:45:22.928Z,4.00
2018-11-23T09:47:52.657Z,4.00
2018-11-23T09:50:22.038Z,4.00
2018-11-23T09:52:51.652Z,4.00
2018-11-23T09:55:20.745Z,4.10
2018-11-23T09:57:49.245Z,4.10
2018-11-23T10:00:19.889Z,4.10
2018-11-23T10:02:49.081Z,4.20
2018-11-23T10:05:17.828Z,4.20
2018-11-23T10:07:47.476Z,4.20
2018-11-23T10:10:16.645Z,4.30
2018-11-23T10:12:44.970Z,4.40
2018-11-23T10:15:14.854Z,4.40
2018-11-23T10:17:43.332Z,4.50
2018-11-23T10:20:18.138Z,4.60
2018-11-23T10:22:47.242Z,4.70
2018-11-23T10:25:18.484Z,4.70
2018-11-23T10:27:47.284Z,4.80
2018-11-23T10:30:18.695Z,4.90
2018-11-23T10:32:48.146Z,4.90
2018-11-23T10:35:16.627Z,5.00
2018-11-23T10:37:45.988Z,5.00
2018-11-23T10:40:16.189Z,5.10
2018-11-23T10:42:44.929Z,5.20
2018-11-23T10:45:17.073Z,5.30
2018-11-23T10:47:45.792Z,5.30
2018-11-23T10:50:19.201Z,5.40
2018-11-23T10:52:47.656Z,5.30
2018-11-23T10:55:18.228Z,5.30
2018-11-23T10:57:46.748Z,5.40
2018-11-23T11:00:22.479Z,5.40
2018-11-23T11:02:57.293Z,5.40
2018-11-23T11:05:36.877Z,5.40
2018-11-23T11:08:05.939Z,5.40
2018-11-23T11:10:34.314Z,5.50
2018-11-23T11:13:02.696Z,5.50
2018-11-23T11:15:31.098Z,5.50
2018-11-23T11:17:59.688Z,5.50
2018-11-23T11:20:28.180Z,5.60
2018-11-23T11:22:56.533Z,5.70
2018-11-23T11:25:24.985Z,5.70
2018-11-23T11:27:53.500Z,5.70
2018-11-23T11:30:21.842Z,5.70
2018-11-23T11:32:50.663Z,5.80
2018-11-23T11:35:19.045Z,5.80
2018-11-23T11:37:47.381Z,5.80
2018-11-23T11:40:17.399Z,5.90
2018-11-23T11:42:45.956Z,5.90
2018-11-23T11:45:15.657Z,5.90
2018-11-23T11:47:44.752Z,5.90
2018-11-23T11:50:13.755Z,5.90
2018-11-23T11:52:43.455Z,5.90
2018-11-23T11:55:13.772Z,6.00
2018-11-23T11:57:42.472Z,6.00
2018-11-23T12:00:13.944Z,6.00
2018-11-23T12:02:42.287Z,6.00
2018-11-23T12:05:11.945Z,6.00
2018-11-23T12:07:40.591Z,6.10
2018-11-23T12:10:11.159Z,6.10
2018-11-23T12:12:39.796Z,6.10
2018-11-23T12:15:09.316Z,6.10
2018-11-23T12:17:37.723Z,6.10
2018-11-23T12:20:08.212Z,6.10
2018-11-23T12:22:36.548Z,6.10
2018-11-23T12:25:05.213Z,6.20
2018-11-23T12:27:33.577Z,6.20
2018-11-23T12:30:02.304Z,6.20
2018-11-23T12:32:30.787Z,6.20
2018-11-23T12:34:59.375Z,6.30
2018-11-23T12:37:28.209Z,6.30
2018-11-23T12:39:56.594Z,6.30
2018-11-23T12:42:25.153Z,6.30
2018-11-23T12:44:54.201Z,6.40
2018-11-23T12:47:22.938Z,6.40
2018-11-23T12:49:51.482Z,6.40
2018-11-23T12:52:19.946Z,6.40
2018-11-23T12:54:48.423Z,6.40
2018-11-23T12:57:16.975Z,6.40
2018-11-23T12:59:45.352Z,6.40
2018-11-23T13:02:14.413Z,6.40
2018-11-23T13:04:42.761Z,6.40
2018-11-23T13:07:11.117Z,6.40
2018-11-23T13:09:39.450Z,6.40
2018-11-23T13:12:07.744Z,6.50
2018-11-23T13:14:36.194Z,6.50
2018-11-23T13:17:04.553Z,6.50
2018-11-23T13:19:32.860Z,6.50
2018-11-23T13:22:01.242Z,6.50
2018-11-23T13:24:29.585Z,6.50
2018-11-23T13:26:57.930Z,6.50
2018-11-23T13:29:26.259Z,6.40
2018-11-23T13:31:54.577Z,6.40
2018-11-23T13:34:22.980Z,6.50
2018-11-23T13:36:51.340Z,6.50
2018-11-23T13:39:19.708Z,6.50
2018-11-23T13:41:48.086Z,6.50
2018-11-23T13:44:16.428Z,6.50
2018-11-23T13:46:44.823Z,6.50
2018-11-23T13:49:13.107Z,6.50
2018-11-23T13:51:41.454Z,6.50
2018-11-23T13:54:09.774Z,6.50
2018-11-23T13:56:38.119Z,6.60
2018-11-23T13:59:06.409Z,6.60
2018-11-23T14:01:34.763Z,6.50
2018-11-23T14:04:03.136Z,6.60
2018-11-23T14:06:31.515Z,6.60
2018-11-23T14:08:59.830Z,6.50
2018-11-23T14:11:28.199Z,6.50
2018-11-23T14:13:56.499Z,6.50
2018-11-23T14:16:24.814Z,6.50
2018-11-23T14:18:53.173Z,6.60
2018-11-23T14:21:21.573Z,6.60
2018-11-23T14:23:49.870Z,6.60
2018-11-23T14:26:18.254Z,6.60
2018-11-23T14:28:46.580Z,6.50
2018-11-23T14:31:14.942Z,6.50
2018-11-23T14:33:43.266Z,6.50
2018-11-23T14:36:11.624Z,6.50
2018-11-23T14:38:39.991Z,6.50
2018-11-23T14:41:08.372Z,6.50
2018-11-23T14:43:36.690Z,6.50
2018-11-23T14:46:05.044Z,6.40
2018-11-23T14:48:33.397Z,6.50
2018-11-23T14:51:01.752Z,6.40
2018-11-23T14:53:30.134Z,6.40
2018-11-23T14:55:58.508Z,6.40
2018-11-23T14:58:26.861Z,6.40
2018-11-23T15:00:55.341Z,6.40
2018-11-23T15:03:23.739Z,6.40
2018-11-23T15:05:52.059Z,6.40
2018-11-23T15:08:20.404Z,6.30
2018-11-23T15:10:48.878Z,6.20
2018-11-23T15:13:17.189Z,6.20
2018-11-23T15:15:45.553Z,6.20
2018-11-23T15:18:13.908Z,6.10
2018-11-23T15:20:44.134Z,6.10
2018-11-23T15:23:18.105Z,6.10
2018-11-23T15:25:46.485Z,6.00
2018-11-23T15:28:15.417Z,5.90
2018-11-23T15:30:44.748Z,5.90
2018-11-23T15:33:14.617Z,5.80
2018-11-23T15:35:43.542Z,5.70
2018-11-23T15:38:15.814Z,5.70
2018-11-23T15:40:44.190Z,5.70
2018-11-23T15:43:13.837Z,5.60
2018-11-23T15:45:42.276Z,5.60
2018-11-23T15:48:10.930Z,5.60
2018-11-23T15:50:40.460Z,5.50
2018-11-23T15:53:10.264Z,5.40
2018-11-23T15:55:39.380Z,5.40
2018-11-23T15:58:10.305Z,5.40
2018-11-23T16:00:39.811Z,5.30
2018-11-23T16:03:10.611Z,5.30
2018-11-23T16:05:39.248Z,5.30
2018-11-23T16:08:09.343Z,5.20
2018-11-23T16:10:38.442Z,5.20
2018-11-23T16:13:11.291Z,5.10
2018-11-23T16:15:37.039Z,5.10
2018-11-23T16:18:05.769Z,5.00
2018-11-23T16:20:36.706Z,4.90
2018-11-23T16:23:06.453Z,4.90
2018-11-23T16:25:35.059Z,4.80
2018-11-23T16:28:04.771Z,4.80
2018-11-23T16:30:34.611Z,4.80
2018-11-23T16:33:04.012Z,4.70
2018-11-23T16:35:33.840Z,4.70
2018-11-23T16:38:03.686Z,4.60
2018-11-23T16:40:33.381Z,4.50
2018-11-23T16:43:02.294Z,4.50
2018-11-23T16:45:32.026Z,4.50
2018-11-23T16:48:01.525Z,4.40
2018-11-23T16:50:30.228Z,4.30
2018-11-23T16:52:58.873Z,4.20
2018-11-23T16:55:27.584Z,4.20
2018-11-23T16:58:00.163Z,4.20
2018-11-23T17:00:29.709Z,4.10
2018-11-23T17:02:59.370Z,4.10
2018-11-23T17:05:31.258Z,4.10
2018-11-23T17:07:59.604Z,4.00
2018-11-23T17:10:27.957Z,4.00
2018-11-23T17:12:56.336Z,4.00
2018-11-23T17:15:26.105Z,4.00
2018-11-23T17:17:54.428Z,4.00
2018-11-23T17:20:24.106Z,4.00
2018-11-23T17:22:53.545Z,4.00
2018-11-23T17:25:22.776Z,4.00
2018-11-23T17:27:51.743Z,4.00
2018-11-23T17:30:22.496Z,4.00
2018-11-23T17:32:50.791Z,3.90
2018-11-23T17:35:19.113Z,3.90
2018-11-23T17:37:47.562Z,3.90
2018-11-23T17:40:17.215Z,3.90
2018-11-23T17:42:45.712Z,3.90
2018-11-23T17:45:17.794Z,3.90
2018-11-23T17:47:46.188Z,3.90
2018-11-23T17:50:16.325Z,4.00
2018-11-23T17:52:44.862Z,4.00
2018-11-23T17:55:13.870Z,4.00
2018-11-23T17:57:42.978Z,4.00
2018-11-23T18:00:14.947Z,4.00
2018-11-23T18:02:43.603Z,4.10
2018-11-23T18:05:12.800Z,4.00
2018-11-23T18:07:41.188Z,4.10
2018-11-23T18:10:12.994Z,4.10
2018-11-23T18:12:41.346Z,4.10
2018-11-23T18:15:11.516Z,4.10
2018-11-23T18:17:39.957Z,4.10
2018-11-23T18:20:11.429Z,4.10
2018-11-23T18:22:40.160Z,4.10
2018-11-23T18:25:11.064Z,4.10
2018-11-23T18:27:39.449Z,4.10
2018-11-23T18:30:09.575Z,4.10
2018-11-23T18:32:38.067Z,4.10
2018-11-23T18:35:07.585Z,4.10
2018-11-23T18:37:35.896Z,4.10
2018-11-23T18:40:12.881Z,4.10
2018-11-23T18:42:41.211Z,4.10
2018-11-23T18:45:13.463Z,4.00
2018-11-23T18:47:42.852Z,4.10
2018-11-23T18:50:15.526Z,4.00
2018-11-23T18:52:43.860Z,4.10
2018-11-23T18:55:17.992Z,4.10
2018-11-23T18:57:41.975Z,4.00
2018-11-23T19:00:14.255Z,4.00
2018-11-23T19:02:43.610Z,4.00
2018-11-23T19:05:13.481Z,4.00
2018-11-23T19:07:41.823Z,4.00
2018-11-23T19:10:11.488Z,4.00
2018-11-23T19:12:39.828Z,4.00
2018-11-23T19:15:11.659Z,4.00
2018-11-23T19:17:39.979Z,4.00
2018-11-23T19:20:12.508Z,4.00
2018-11-23T19:22:41.794Z,4.00
2018-11-23T19:25:10.118Z,4.10
2018-11-23T19:27:38.445Z,4.00
2018-11-23T19:30:10.621Z,4.00
2018-11-23T19:32:38.938Z,4.00
2018-11-23T19:35:07.752Z,4.00
2018-11-23T19:37:36.096Z,4.10
2018-11-23T19:40:07.289Z,4.10
2018-11-23T19:42:35.636Z,4.10
2018-11-23T19:45:03.944Z,4.00
2018-11-23T19:47:32.260Z,4.10
2018-11-23T19:50:00.582Z,4.10
2018-11-23T19:52:29.630Z,4.10
2018-11-23T19:54:57.954Z,4.10
2018-11-23T19:57:26.267Z,4.10
2018-11-23T19:59:54.569Z,4.10
2018-11-23T20:02:22.901Z,4.10
2018-11-23T20:04:51.258Z,4.10
2018-11-23T20:07:19.616Z,4.10
2018-11-23T20:09:47.922Z,4.10
2018-11-23T20:12:16.299Z,4.10
2018-11-23T20:14:44.594Z,4.10
2018-11-23T20:17:12.973Z,4.10
2018-11-23T20:19:41.368Z,4.10
2018-11-23T20:22:09.701Z,4.10
2018-11-23T20:24:37.994Z,4.10
2018-11-23T20:27:06.394Z,4.10
2018-11-23T20:29:35.435Z,4.10
2018-11-23T20:32:03.188Z,4.10
2018-11-23T20:34:31.546Z,4.20
2018-11-23T20:36:59.868Z,4.10
2018-11-23T20:39:28.160Z,4.10
2018-11-23T20:41:56.546Z,4.10
2018-11-23T20:44:24.924Z,4.10
2018-11-23T20:46:53.639Z,4.20
2018-11-23T20:49:21.974Z,4.10
2018-11-23T20:51:50.333Z,4.10
2018-11-23T20:54:18.836Z,4.10
2018-11-23T20:56:47.212Z,4.10
2018-11-23T20:59:15.543Z,4.10
2018-11-23T21:01:43.927Z,4.10
2018-11-23T21:04:12.305Z,4.10
2018-11-23T21:06:40.631Z,4.10
2018-11-23T21:09:09.859Z,4.10
2018-11-23T21:11:38.336Z,4.10
2018-11-23T21:14:06.681Z,4.20
2018-11-23T21:16:34.962Z,4.20
2018-11-23T21:19:03.292Z,4.10
2018-11-23T21:21:31.607Z,4.10
2018-11-23T21:23:59.963Z,4.10
2018-11-23T21:26:28.280Z,4.10
2018-11-23T21:28:56.616Z,4.10
2018-11-23T21:31:24.939Z,4.20
2018-11-23T21:33:53.265Z,4.10
2018-11-23T21:36:21.554Z,4.10
2018-11-23T21:38:49.882Z,4.20
2018-11-23T21:41:18.166Z,4.20
2018-11-23T21:43:46.629Z,4.20
2018-11-23T21:46:14.935Z,4.20
2018-11-23T21:48:43.234Z,4.20
2018-11-23T21:51:11.898Z,4.20
2018-11-23T21:53:40.320Z,4.20
2018-11-23T21:56:09.429Z,4.20
2018-11-23T21:58:37.025Z,4.20
2018-11-23T22:01:05.486Z,4.20
2018-11-23T22:03:33.814Z,4.20
2018-11-23T22:06:02.177Z,4.20
2018-11-23T22:08:30.611Z,4.10
2018-11-23T22:10:58.952Z,4.10
2018-11-23T22:13:27.342Z,4.20
2018-11-23T22:15:55.635Z,4.20
2018-11-23T22:18:23.993Z,4.10
2018-11-23T22:20:52.411Z,4.10
2018-11-23T22:23:20.843Z,4.20
2018-11-23T22:25:49.187Z,4.20
2018-11-23T22:28:17.614Z,4.20
2018-11-23T22:30:45.950Z,4.20
2018-11-23T22:33:14.283Z,4.20
2018-11-23T22:35:48.149Z,4.20
2018-11-23T22:38:11.027Z,4.20
2018-11-23T22:40:39.385Z,4.20
2018-11-23T22:43:07.689Z,4.20
2018-11-23T22:45:36.033Z,4.20
2018-11-23T22:48:11.011Z,4.20
2018-11-23T22:50:39.395Z,4.20
2018-11-23T22:53:07.677Z,4.20
2018-11-23T22:55:36.014Z,4.20
2018-11-23T22:58:04.389Z,4.20
2018-11-23T23:00:38.282Z,4.20
2018-11-23T23:03:06.684Z,4.20
2018-11-23T23:05:35.038Z,4.20
2018-11-23T23:08:03.381Z,4.20
2018-11-23T23:10:31.742Z,4.20
2018-11-23T23:13:00.047Z,4.20
2018-11-23T23:15:28.384Z,4.20
2018-11-23T23:17:56.718Z,4.20
2018-11-23T23:20:25.081Z,4.30
2018-11-23T23:22:53.398Z,4.20
2018-11-23T23:25:21.771Z,4.30
2018-11-23T23:27:50.085Z,4.30
2018-11-23T23:30:18.709Z,4.20
2018-11-23T23:32:47.956Z,4.30
2018-11-23T23:35:16.959Z,4.30
2018-11-23T23:37:45.344Z,4.30
2018-11-23T23:40:15.715Z,4.30
2018-11-23T23:42:44.151Z,4.30
2018-11-23T23:45:13.562Z,4.30
2018-11-23T23:47:41.902Z,4.30
2018-11-23T23:50:13.281Z,4.30
2018-11-23T23:52:41.670Z,4.30
2018-11-23T23:55:10.444Z,4.30
2018-11-23T23:57:39.660Z,4.30
